sensor_id;sensor_type;location;lat;lon;timestamp;temperature;humidity
48551;DHT22;34397;51.176;6.738;2022-11-20T00:01:51;5.30;58.80
48551;DHT22;34397;51.176;6.738;2022-11-20T00:04:23;5.30;58.80
48551;DHT22;34397;51.176;6.738;2022-11-20T00:06:55;5.30;58.70
48551;DHT22;34397;51.176;6.738;2022-11-20T00:09:27;5.30;58.70
48551;DHT22;34397;51.176;6.738;2022-11-20T00:11:58;5.30;58.70
48551;DHT22;34397;51.176;6.738;2022-11-20T00:14:30;5.30;58.80
48551;DHT22;34397;51.176;6.738;2022-11-20T00:17:03;5.30;58.80
48551;DHT22;34397;51.176;6.738;2022-11-20T00:19:35;5.30;58.90
48551;DHT22;34397;51.176;6.738;2022-11-20T00:22:06;5.30;58.90
48551;DHT22;34397;51.176;6.738;2022-11-20T00:24:38;5.20;58.90
48551;DHT22;34397;51.176;6.738;2022-11-20T00:27:10;5.20;58.90
48551;DHT22;34397;51.176;6.738;2022-11-20T00:29:41;5.20;59.00
48551;DHT22;34397;51.176;6.738;2022-11-20T00:32:14;5.20;59.00
48551;DHT22;34397;51.176;6.738;2022-11-20T00:34:46;5.20;59.00
48551;DHT22;34397;51.176;6.738;2022-11-20T00:37:18;5.20;59.00
48551;DHT22;34397;51.176;6.738;2022-11-20T00:39:49;5.20;58.90
48551;DHT22;34397;51.176;6.738;2022-11-20T00:42:21;5.20;58.90
48551;DHT22;34397;51.176;6.738;2022-11-20T00:44:53;5.10;58.90
48551;DHT22;34397;51.176;6.738;2022-11-20T00:47:26;5.10;58.90
48551;DHT22;34397;51.176;6.738;2022-11-20T00:49:57;5.10;59.00
48551;DHT22;34397;51.176;6.738;2022-11-20T00:52:29;5.10;59.20
48551;DHT22;34397;51.176;6.738;2022-11-20T00:55:01;5.20;59.30
48551;DHT22;34397;51.176;6.738;2022-11-20T00:57:32;5.10;59.20
48551;DHT22;34397;51.176;6.738;2022-11-20T01:00:05;5.20;59.30
48551;DHT22;34397;51.176;6.738;2022-11-20T01:02:39;5.20;59.40
48551;DHT22;34397;51.176;6.738;2022-11-20T01:05:10;5.20;59.40
48551;DHT22;34397;51.176;6.738;2022-11-20T01:07:42;5.20;59.40
48551;DHT22;34397;51.176;6.738;2022-11-20T01:10:14;5.20;59.40
48551;DHT22;34397;51.176;6.738;2022-11-20T01:12:45;5.20;59.50
48551;DHT22;34397;51.176;6.738;2022-11-20T01:15:37;5.20;59.40
48551;DHT22;34397;51.176;6.738;2022-11-20T01:18:10;5.20;59.40
48551;DHT22;34397;51.176;6.738;2022-11-20T01:20:42;5.20;59.40
48551;DHT22;34397;51.176;6.738;2022-11-20T01:23:13;5.10;59.30
48551;DHT22;34397;51.176;6.738;2022-11-20T01:25:45;5.10;59.30
48551;DHT22;34397;51.176;6.738;2022-11-20T01:28:17;5.10;59.30
48551;DHT22;34397;51.176;6.738;2022-11-20T01:30:48;5.10;59.30
48551;DHT22;34397;51.176;6.738;2022-11-20T01:33:22;5.10;59.30
48551;DHT22;34397;51.176;6.738;2022-11-20T01:35:53;5.10;59.30
48551;DHT22;34397;51.176;6.738;2022-11-20T01:38:34;5.10;59.40
48551;DHT22;34397;51.176;6.738;2022-11-20T01:41:06;5.10;60.00
48551;DHT22;34397;51.176;6.738;2022-11-20T01:43:38;5.00;59.30
48551;DHT22;34397;51.176;6.738;2022-11-20T01:46:13;5.10;59.50
48551;DHT22;34397;51.176;6.738;2022-11-20T01:48:50;5.00;59.50
48551;DHT22;34397;51.176;6.738;2022-11-20T01:51:25;5.00;59.50
48551;DHT22;34397;51.176;6.738;2022-11-20T01:54:02;5.00;59.50
48551;DHT22;34397;51.176;6.738;2022-11-20T01:56:36;5.00;59.60
48551;DHT22;34397;51.176;6.738;2022-11-20T01:59:10;5.00;59.40
48551;DHT22;34397;51.176;6.738;2022-11-20T02:01:43;5.00;59.60
48551;DHT22;34397;51.176;6.738;2022-11-20T02:04:16;5.00;59.70
48551;DHT22;34397;51.176;6.738;2022-11-20T02:06:48;5.00;59.80
48551;DHT22;34397;51.176;6.738;2022-11-20T02:09:21;5.00;59.80
48551;DHT22;34397;51.176;6.738;2022-11-20T02:11:53;5.00;59.70
48551;DHT22;34397;51.176;6.738;2022-11-20T02:14:25;5.00;59.50
48551;DHT22;34397;51.176;6.738;2022-11-20T02:16:55;5.00;59.40
48551;DHT22;34397;51.176;6.738;2022-11-20T02:19:29;5.00;59.30
48551;DHT22;34397;51.176;6.738;2022-11-20T02:22:03;4.90;59.40
48551;DHT22;34397;51.176;6.738;2022-11-20T02:24:39;4.90;59.40
48551;DHT22;34397;51.176;6.738;2022-11-20T02:27:11;4.90;59.30
48551;DHT22;34397;51.176;6.738;2022-11-20T02:29:45;4.80;59.30
48551;DHT22;34397;51.176;6.738;2022-11-20T02:32:18;4.70;59.30
48551;DHT22;34397;51.176;6.738;2022-11-20T02:34:50;4.60;58.30
48551;DHT22;34397;51.176;6.738;2022-11-20T02:37:22;4.50;58.80
48551;DHT22;34397;51.176;6.738;2022-11-20T02:39:55;4.50;59.10
48551;DHT22;34397;51.176;6.738;2022-11-20T02:42:27;4.40;59.40
48551;DHT22;34397;51.176;6.738;2022-11-20T02:44:58;4.40;59.60
48551;DHT22;34397;51.176;6.738;2022-11-20T02:47:30;4.30;59.60
48551;DHT22;34397;51.176;6.738;2022-11-20T02:50:02;4.20;60.10
48551;DHT22;34397;51.176;6.738;2022-11-20T02:52:35;4.20;59.70
48551;DHT22;34397;51.176;6.738;2022-11-20T02:55:08;4.10;59.70
48551;DHT22;34397;51.176;6.738;2022-11-20T02:57:40;4.00;59.80
48551;DHT22;34397;51.176;6.738;2022-11-20T03:00:12;4.00;59.80
48551;DHT22;34397;51.176;6.738;2022-11-20T03:02:45;3.90;60.00
48551;DHT22;34397;51.176;6.738;2022-11-20T03:05:16;3.90;60.20
48551;DHT22;34397;51.176;6.738;2022-11-20T03:07:48;3.80;60.30
48551;DHT22;34397;51.176;6.738;2022-11-20T03:10:21;3.80;60.50
48551;DHT22;34397;51.176;6.738;2022-11-20T03:12:53;3.70;60.70
48551;DHT22;34397;51.176;6.738;2022-11-20T03:15:26;3.70;61.10
48551;DHT22;34397;51.176;6.738;2022-11-20T03:17:57;3.70;61.40
48551;DHT22;34397;51.176;6.738;2022-11-20T03:20:29;3.70;61.40
48551;DHT22;34397;51.176;6.738;2022-11-20T03:23:01;3.70;61.40
48551;DHT22;34397;51.176;6.738;2022-11-20T03:25:34;3.70;61.30
48551;DHT22;34397;51.176;6.738;2022-11-20T03:28:06;3.70;61.30
48551;DHT22;34397;51.176;6.738;2022-11-20T03:30:37;3.60;61.30
48551;DHT22;34397;51.176;6.738;2022-11-20T03:33:09;3.60;61.40
48551;DHT22;34397;51.176;6.738;2022-11-20T03:35:41;3.60;61.50
48551;DHT22;34397;51.176;6.738;2022-11-20T03:38:13;3.50;61.60
48551;DHT22;34397;51.176;6.738;2022-11-20T03:40:46;3.50;61.80
48551;DHT22;34397;51.176;6.738;2022-11-20T03:43:19;3.50;61.90
48551;DHT22;34397;51.176;6.738;2022-11-20T03:45:50;3.50;62.10
48551;DHT22;34397;51.176;6.738;2022-11-20T03:48:22;3.50;62.10
48551;DHT22;34397;51.176;6.738;2022-11-20T03:51:05;3.50;62.00
48551;DHT22;34397;51.176;6.738;2022-11-20T03:53:38;3.50;62.20
48551;DHT22;34397;51.176;6.738;2022-11-20T03:56:11;3.50;62.50
48551;DHT22;34397;51.176;6.738;2022-11-20T03:58:44;3.50;62.40
48551;DHT22;34397;51.176;6.738;2022-11-20T04:01:16;3.40;61.00
48551;DHT22;34397;51.176;6.738;2022-11-20T04:03:51;3.40;61.90
48551;DHT22;34397;51.176;6.738;2022-11-20T04:06:24;3.40;62.40
48551;DHT22;34397;51.176;6.738;2022-11-20T04:08:57;3.40;62.60
48551;DHT22;34397;51.176;6.738;2022-11-20T04:11:31;3.40;62.70
48551;DHT22;34397;51.176;6.738;2022-11-20T04:14:04;3.40;62.70
48551;DHT22;34397;51.176;6.738;2022-11-20T04:16:37;3.40;62.80
48551;DHT22;34397;51.176;6.738;2022-11-20T04:19:09;3.40;62.80
48551;DHT22;34397;51.176;6.738;2022-11-20T04:21:45;3.40;62.60
48551;DHT22;34397;51.176;6.738;2022-11-20T04:24:17;3.40;62.60
48551;DHT22;34397;51.176;6.738;2022-11-20T04:26:50;3.40;62.50
48551;DHT22;34397;51.176;6.738;2022-11-20T04:29:21;3.40;62.60
48551;DHT22;34397;51.176;6.738;2022-11-20T04:31:53;3.40;62.70
48551;DHT22;34397;51.176;6.738;2022-11-20T04:34:25;3.40;63.40
48551;DHT22;34397;51.176;6.738;2022-11-20T04:36:56;3.40;62.40
48551;DHT22;34397;51.176;6.738;2022-11-20T04:39:28;3.40;62.40
48551;DHT22;34397;51.176;6.738;2022-11-20T04:42:01;3.40;62.80
48551;DHT22;34397;51.176;6.738;2022-11-20T04:44:50;3.40;63.10
48551;DHT22;34397;51.176;6.738;2022-11-20T04:47:22;3.40;63.50
48551;DHT22;34397;51.176;6.738;2022-11-20T04:49:54;3.50;63.70
48551;DHT22;34397;51.176;6.738;2022-11-20T04:52:25;3.50;63.60
48551;DHT22;34397;51.176;6.738;2022-11-20T04:54:57;3.50;63.50
48551;DHT22;34397;51.176;6.738;2022-11-20T04:57:30;3.50;63.50
48551;DHT22;34397;51.176;6.738;2022-11-20T05:00:02;3.50;63.50
48551;DHT22;34397;51.176;6.738;2022-11-20T05:02:34;3.50;62.50
48551;DHT22;34397;51.176;6.738;2022-11-20T05:05:06;3.50;63.00
48551;DHT22;34397;51.176;6.738;2022-11-20T05:07:38;3.60;63.30
48551;DHT22;34397;51.176;6.738;2022-11-20T05:10:10;3.60;63.30
48551;DHT22;34397;51.176;6.738;2022-11-20T05:12:43;3.60;63.30
48551;DHT22;34397;51.176;6.738;2022-11-20T05:15:15;3.60;63.30
48551;DHT22;34397;51.176;6.738;2022-11-20T05:17:47;3.60;63.30
48551;DHT22;34397;51.176;6.738;2022-11-20T05:20:19;3.60;63.20
48551;DHT22;34397;51.176;6.738;2022-11-20T05:22:51;3.60;63.10
48551;DHT22;34397;51.176;6.738;2022-11-20T05:25:23;3.60;63.10
48551;DHT22;34397;51.176;6.738;2022-11-20T05:27:56;3.60;63.10
48551;DHT22;34397;51.176;6.738;2022-11-20T05:30:28;3.60;63.10
48551;DHT22;34397;51.176;6.738;2022-11-20T05:33:00;3.60;63.10
48551;DHT22;34397;51.176;6.738;2022-11-20T05:35:32;3.60;63.20
48551;DHT22;34397;51.176;6.738;2022-11-20T05:38:03;3.60;63.40
48551;DHT22;34397;51.176;6.738;2022-11-20T05:40:35;3.60;63.40
48551;DHT22;34397;51.176;6.738;2022-11-20T05:43:08;3.60;63.20
48551;DHT22;34397;51.176;6.738;2022-11-20T05:45:40;3.60;63.30
48551;DHT22;34397;51.176;6.738;2022-11-20T05:48:11;3.60;63.40
48551;DHT22;34397;51.176;6.738;2022-11-20T05:50:43;3.60;63.40
48551;DHT22;34397;51.176;6.738;2022-11-20T05:53:15;3.60;63.40
48551;DHT22;34397;51.176;6.738;2022-11-20T05:55:55;3.60;63.50
48551;DHT22;34397;51.176;6.738;2022-11-20T05:58:29;3.60;63.40
48551;DHT22;34397;51.176;6.738;2022-11-20T06:01:05;3.70;63.30
48551;DHT22;34397;51.176;6.738;2022-11-20T06:03:38;3.60;63.40
48551;DHT22;34397;51.176;6.738;2022-11-20T06:06:10;3.70;63.50
48551;DHT22;34397;51.176;6.738;2022-11-20T06:08:43;3.70;63.50
48551;DHT22;34397;51.176;6.738;2022-11-20T06:11:16;3.70;63.50
48551;DHT22;34397;51.176;6.738;2022-11-20T06:13:50;3.70;63.10
48551;DHT22;34397;51.176;6.738;2022-11-20T06:16:22;3.70;63.40
48551;DHT22;34397;51.176;6.738;2022-11-20T06:18:53;3.70;63.40
48551;DHT22;34397;51.176;6.738;2022-11-20T06:21:25;3.70;63.50
48551;DHT22;34397;51.176;6.738;2022-11-20T06:23:57;3.70;63.40
48551;DHT22;34397;51.176;6.738;2022-11-20T06:26:29;3.70;63.30
48551;DHT22;34397;51.176;6.738;2022-11-20T06:29:03;3.70;63.30
48551;DHT22;34397;51.176;6.738;2022-11-20T06:31:34;3.70;63.20
48551;DHT22;34397;51.176;6.738;2022-11-20T06:34:08;3.70;63.10
48551;DHT22;34397;51.176;6.738;2022-11-20T06:36:39;3.70;63.20
48551;DHT22;34397;51.176;6.738;2022-11-20T06:39:11;3.70;63.20
48551;DHT22;34397;51.176;6.738;2022-11-20T06:41:43;3.70;63.10
48551;DHT22;34397;51.176;6.738;2022-11-20T06:44:16;3.60;62.80
48551;DHT22;34397;51.176;6.738;2022-11-20T06:46:48;3.60;63.50
48551;DHT22;34397;51.176;6.738;2022-11-20T06:49:19;3.50;62.70
48551;DHT22;34397;51.176;6.738;2022-11-20T06:51:51;3.50;62.80
48551;DHT22;34397;51.176;6.738;2022-11-20T06:54:23;3.40;62.80
48551;DHT22;34397;51.176;6.738;2022-11-20T06:56:55;3.40;62.90
48551;DHT22;34397;51.176;6.738;2022-11-20T06:59:28;3.30;62.90
48551;DHT22;34397;51.176;6.738;2022-11-20T07:02:00;3.30;63.00
48551;DHT22;34397;51.176;6.738;2022-11-20T07:04:31;3.20;63.10
48551;DHT22;34397;51.176;6.738;2022-11-20T07:07:03;3.20;63.10
48551;DHT22;34397;51.176;6.738;2022-11-20T07:09:36;3.20;62.90
48551;DHT22;34397;51.176;6.738;2022-11-20T07:12:08;3.10;63.20
48551;DHT22;34397;51.176;6.738;2022-11-20T07:14:41;3.10;63.60
48551;DHT22;34397;51.176;6.738;2022-11-20T07:17:12;3.10;63.80
48551;DHT22;34397;51.176;6.738;2022-11-20T07:19:44;3.10;64.00
48551;DHT22;34397;51.176;6.738;2022-11-20T07:22:16;3.10;63.60
48551;DHT22;34397;51.176;6.738;2022-11-20T07:24:48;3.10;63.70
48551;DHT22;34397;51.176;6.738;2022-11-20T07:27:19;3.10;63.70
48551;DHT22;34397;51.176;6.738;2022-11-20T07:29:52;3.10;63.90
48551;DHT22;34397;51.176;6.738;2022-11-20T07:32:24;3.10;63.90
48551;DHT22;34397;51.176;6.738;2022-11-20T07:34:56;3.10;63.90
48551;DHT22;34397;51.176;6.738;2022-11-20T07:37:28;3.10;64.00
48551;DHT22;34397;51.176;6.738;2022-11-20T07:40:00;3.10;64.20
48551;DHT22;34397;51.176;6.738;2022-11-20T07:42:31;3.10;64.30
48551;DHT22;34397;51.176;6.738;2022-11-20T07:45:05;3.10;65.00
48551;DHT22;34397;51.176;6.738;2022-11-20T07:47:37;3.10;64.40
48551;DHT22;34397;51.176;6.738;2022-11-20T07:50:09;3.10;64.50
48551;DHT22;34397;51.176;6.738;2022-11-20T07:52:41;3.20;64.60
48551;DHT22;34397;51.176;6.738;2022-11-20T07:55:12;3.20;64.60
48551;DHT22;34397;51.176;6.738;2022-11-20T07:57:44;3.20;64.70
48551;DHT22;34397;51.176;6.738;2022-11-20T08:00:17;3.20;64.70
48551;DHT22;34397;51.176;6.738;2022-11-20T08:02:49;3.30;64.90
48551;DHT22;34397;51.176;6.738;2022-11-20T08:05:21;3.30;64.90
48551;DHT22;34397;51.176;6.738;2022-11-20T08:07:53;3.30;64.90
48551;DHT22;34397;51.176;6.738;2022-11-20T08:10:25;3.40;65.00
48551;DHT22;34397;51.176;6.738;2022-11-20T08:12:57;3.40;64.80
48551;DHT22;34397;51.176;6.738;2022-11-20T08:15:49;3.50;64.80
48551;DHT22;34397;51.176;6.738;2022-11-20T08:18:21;3.50;64.50
48551;DHT22;34397;51.176;6.738;2022-11-20T08:20:53;3.50;64.50
48551;DHT22;34397;51.176;6.738;2022-11-20T08:23:25;3.50;64.60
48551;DHT22;34397;51.176;6.738;2022-11-20T08:25:56;3.60;64.70
48551;DHT22;34397;51.176;6.738;2022-11-20T08:28:28;3.60;64.80
48551;DHT22;34397;51.176;6.738;2022-11-20T08:31:01;3.60;64.80
48551;DHT22;34397;51.176;6.738;2022-11-20T08:33:34;3.70;64.90
48551;DHT22;34397;51.176;6.738;2022-11-20T08:36:06;3.70;64.80
48551;DHT22;34397;51.176;6.738;2022-11-20T08:38:38;3.80;64.80
48551;DHT22;34397;51.176;6.738;2022-11-20T08:41:09;3.80;64.70
48551;DHT22;34397;51.176;6.738;2022-11-20T08:43:57;3.90;64.70
48551;DHT22;34397;51.176;6.738;2022-11-20T08:46:32;4.00;64.60
48551;DHT22;34397;51.176;6.738;2022-11-20T08:49:07;4.00;64.40
48551;DHT22;34397;51.176;6.738;2022-11-20T08:51:40;4.00;64.30
48551;DHT22;34397;51.176;6.738;2022-11-20T08:54:12;4.10;64.10
48551;DHT22;34397;51.176;6.738;2022-11-20T08:56:44;4.20;64.00
48551;DHT22;34397;51.176;6.738;2022-11-20T08:59:15;4.20;63.90
48551;DHT22;34397;51.176;6.738;2022-11-20T09:01:48;4.20;63.80
48551;DHT22;34397;51.176;6.738;2022-11-20T09:04:20;4.20;63.60
48551;DHT22;34397;51.176;6.738;2022-11-20T09:06:52;4.30;63.50
48551;DHT22;34397;51.176;6.738;2022-11-20T09:09:23;4.30;63.50
48551;DHT22;34397;51.176;6.738;2022-11-20T09:11:55;4.30;63.40
48551;DHT22;34397;51.176;6.738;2022-11-20T09:14:27;4.30;63.40
48551;DHT22;34397;51.176;6.738;2022-11-20T09:17:01;4.40;63.30
48551;DHT22;34397;51.176;6.738;2022-11-20T09:19:33;4.40;63.20
48551;DHT22;34397;51.176;6.738;2022-11-20T09:22:05;4.40;63.10
48551;DHT22;34397;51.176;6.738;2022-11-20T09:24:37;4.40;63.00
48551;DHT22;34397;51.176;6.738;2022-11-20T09:27:09;4.40;62.90
48551;DHT22;34397;51.176;6.738;2022-11-20T09:29:40;4.50;62.80
48551;DHT22;34397;51.176;6.738;2022-11-20T09:32:13;4.60;63.00
48551;DHT22;34397;51.176;6.738;2022-11-20T09:34:45;4.60;63.10
48551;DHT22;34397;51.176;6.738;2022-11-20T09:37:17;4.70;63.20
48551;DHT22;34397;51.176;6.738;2022-11-20T09:39:48;4.70;63.10
48551;DHT22;34397;51.176;6.738;2022-11-20T09:42:24;4.80;62.60
48551;DHT22;34397;51.176;6.738;2022-11-20T09:45:13;4.80;62.10
48551;DHT22;34397;51.176;6.738;2022-11-20T09:47:59;4.90;61.70
48551;DHT22;34397;51.176;6.738;2022-11-20T09:50:38;4.90;62.10
48551;DHT22;34397;51.176;6.738;2022-11-20T09:53:20;4.90;61.30
48551;DHT22;34397;51.176;6.738;2022-11-20T09:55:58;4.90;61.30
48551;DHT22;34397;51.176;6.738;2022-11-20T09:58:33;5.00;61.30
48551;DHT22;34397;51.176;6.738;2022-11-20T10:01:09;5.00;61.00
48551;DHT22;34397;51.176;6.738;2022-11-20T10:03:48;5.00;60.60
48551;DHT22;34397;51.176;6.738;2022-11-20T10:06:24;5.00;60.60
48551;DHT22;34397;51.176;6.738;2022-11-20T10:09:13;5.00;60.50
48551;DHT22;34397;51.176;6.738;2022-11-20T10:11:51;5.00;60.20
48551;DHT22;34397;51.176;6.738;2022-11-20T10:14:30;5.00;59.90
48551;DHT22;34397;51.176;6.738;2022-11-20T10:17:10;5.00;59.90
48551;DHT22;34397;51.176;6.738;2022-11-20T10:19:54;5.00;59.90
48551;DHT22;34397;51.176;6.738;2022-11-20T10:22:35;4.90;59.90
48551;DHT22;34397;51.176;6.738;2022-11-20T10:25:14;4.90;60.00
48551;DHT22;34397;51.176;6.738;2022-11-20T10:27:51;4.90;60.00
48551;DHT22;34397;51.176;6.738;2022-11-20T10:30:29;4.90;59.70
48551;DHT22;34397;51.176;6.738;2022-11-20T10:33:03;4.90;59.70
48551;DHT22;34397;51.176;6.738;2022-11-20T10:35:40;4.90;59.80
48551;DHT22;34397;51.176;6.738;2022-11-20T10:38:14;4.90;60.00
48551;DHT22;34397;51.176;6.738;2022-11-20T10:40:49;4.90;60.20
48551;DHT22;34397;51.176;6.738;2022-11-20T10:43:23;5.00;60.30
48551;DHT22;34397;51.176;6.738;2022-11-20T10:46:00;5.00;60.30
48551;DHT22;34397;51.176;6.738;2022-11-20T10:48:34;5.00;60.30
48551;DHT22;34397;51.176;6.738;2022-11-20T10:51:10;5.00;60.10
48551;DHT22;34397;51.176;6.738;2022-11-20T10:53:53;5.10;59.90
48551;DHT22;34397;51.176;6.738;2022-11-20T10:56:30;5.10;59.90
48551;DHT22;34397;51.176;6.738;2022-11-20T10:59:20;5.10;59.90
48551;DHT22;34397;51.176;6.738;2022-11-20T11:01:59;5.10;59.90
48551;DHT22;34397;51.176;6.738;2022-11-20T11:04:33;5.20;59.90
48551;DHT22;34397;51.176;6.738;2022-11-20T11:07:10;5.20;59.80
48551;DHT22;34397;51.176;6.738;2022-11-20T11:09:46;5.20;59.90
48551;DHT22;34397;51.176;6.738;2022-11-20T11:12:20;5.20;59.90
48551;DHT22;34397;51.176;6.738;2022-11-20T11:14:53;5.20;59.80
48551;DHT22;34397;51.176;6.738;2022-11-20T11:17:26;5.20;59.80
48551;DHT22;34397;51.176;6.738;2022-11-20T11:20:00;5.20;59.80
48551;DHT22;34397;51.176;6.738;2022-11-20T11:22:34;5.30;59.90
48551;DHT22;34397;51.176;6.738;2022-11-20T11:25:20;5.30;59.70
48551;DHT22;34397;51.176;6.738;2022-11-20T11:28:01;5.30;59.70
48551;DHT22;34397;51.176;6.738;2022-11-20T11:30:40;5.30;59.60
48551;DHT22;34397;51.176;6.738;2022-11-20T11:33:18;5.30;59.60
48551;DHT22;34397;51.176;6.738;2022-11-20T11:35:51;5.30;59.70
48551;DHT22;34397;51.176;6.738;2022-11-20T11:38:29;5.30;59.60
48551;DHT22;34397;51.176;6.738;2022-11-20T11:41:02;5.40;59.60
48551;DHT22;34397;51.176;6.738;2022-11-20T11:43:35;5.40;59.70
48551;DHT22;34397;51.176;6.738;2022-11-20T11:46:29;5.40;59.80
48551;DHT22;34397;51.176;6.738;2022-11-20T11:49:11;5.40;59.90
48551;DHT22;34397;51.176;6.738;2022-11-20T11:51:56;5.40;59.70
48551;DHT22;34397;51.176;6.738;2022-11-20T11:54:35;5.50;59.70
48551;DHT22;34397;51.176;6.738;2022-11-20T11:57:12;5.50;59.70
48551;DHT22;34397;51.176;6.738;2022-11-20T11:59:51;5.50;59.70
48551;DHT22;34397;51.176;6.738;2022-11-20T12:02:31;5.50;59.70
48551;DHT22;34397;51.176;6.738;2022-11-20T12:05:11;5.60;59.60
48551;DHT22;34397;51.176;6.738;2022-11-20T12:07:49;5.60;59.60
48551;DHT22;34397;51.176;6.738;2022-11-20T12:10:32;5.60;59.40
48551;DHT22;34397;51.176;6.738;2022-11-20T12:13:15;5.70;59.30
48551;DHT22;34397;51.176;6.738;2022-11-20T12:15:52;5.70;59.00
48551;DHT22;34397;51.176;6.738;2022-11-20T12:18:24;5.70;59.20
48551;DHT22;34397;51.176;6.738;2022-11-20T12:21:00;5.70;59.20
48551;DHT22;34397;51.176;6.738;2022-11-20T12:23:40;5.70;59.00
48551;DHT22;34397;51.176;6.738;2022-11-20T12:26:18;5.70;59.10
48551;DHT22;34397;51.176;6.738;2022-11-20T12:29:05;5.70;59.10
48551;DHT22;34397;51.176;6.738;2022-11-20T12:31:44;5.70;59.20
48551;DHT22;34397;51.176;6.738;2022-11-20T12:34:25;5.70;59.10
48551;DHT22;34397;51.176;6.738;2022-11-20T12:37:22;5.70;59.20
48551;DHT22;34397;51.176;6.738;2022-11-20T12:40:02;5.70;59.20
48551;DHT22;34397;51.176;6.738;2022-11-20T12:42:57;5.70;59.20
48551;DHT22;34397;51.176;6.738;2022-11-20T12:52:01;5.70;59.30
48551;DHT22;34397;51.176;6.738;2022-11-20T12:54:42;5.70;59.30
48551;DHT22;34397;51.176;6.738;2022-11-20T12:57:27;5.70;59.30
48551;DHT22;34397;51.176;6.738;2022-11-20T13:00:09;5.70;59.40
48551;DHT22;34397;51.176;6.738;2022-11-20T13:03:06;5.60;59.40
48551;DHT22;34397;51.176;6.738;2022-11-20T13:05:58;5.60;59.50
48551;DHT22;34397;51.176;6.738;2022-11-20T13:08:33;5.60;59.60
48551;DHT22;34397;51.176;6.738;2022-11-20T13:11:07;5.60;59.80
48551;DHT22;34397;51.176;6.738;2022-11-20T13:13:52;5.60;59.90
48551;DHT22;34397;51.176;6.738;2022-11-20T13:16:33;5.60;60.00
48551;DHT22;34397;51.176;6.738;2022-11-20T13:19:09;5.60;60.10
48551;DHT22;34397;51.176;6.738;2022-11-20T13:21:43;5.60;60.40
48551;DHT22;34397;51.176;6.738;2022-11-20T13:24:24;5.60;60.40
48551;DHT22;34397;51.176;6.738;2022-11-20T13:27:05;5.60;60.60
48551;DHT22;34397;51.176;6.738;2022-11-20T13:29:59;5.60;60.80
48551;DHT22;34397;51.176;6.738;2022-11-20T13:32:34;5.60;60.80
48551;DHT22;34397;51.176;6.738;2022-11-20T13:35:08;5.60;61.00
48551;DHT22;34397;51.176;6.738;2022-11-20T13:37:40;5.60;61.10
48551;DHT22;34397;51.176;6.738;2022-11-20T13:40:13;5.60;61.10
48551;DHT22;34397;51.176;6.738;2022-11-20T13:42:54;5.60;61.20
48551;DHT22;34397;51.176;6.738;2022-11-20T13:45:28;5.60;61.20
48551;DHT22;34397;51.176;6.738;2022-11-20T13:48:03;5.70;61.30
48551;DHT22;34397;51.176;6.738;2022-11-20T13:50:40;5.60;61.30
48551;DHT22;34397;51.176;6.738;2022-11-20T13:53:22;5.60;61.40
48551;DHT22;34397;51.176;6.738;2022-11-20T13:56:05;5.70;61.70
48551;DHT22;34397;51.176;6.738;2022-11-20T13:58:43;5.70;61.80
48551;DHT22;34397;51.176;6.738;2022-11-20T14:01:20;5.70;62.10
48551;DHT22;34397;51.176;6.738;2022-11-20T14:03:54;5.70;62.10
48551;DHT22;34397;51.176;6.738;2022-11-20T14:06:27;5.80;62.10
48551;DHT22;34397;51.176;6.738;2022-11-20T14:08:59;5.70;61.90
48551;DHT22;34397;51.176;6.738;2022-11-20T14:11:31;5.80;62.00
48551;DHT22;34397;51.176;6.738;2022-11-20T14:14:04;5.80;62.10
48551;DHT22;34397;51.176;6.738;2022-11-20T14:16:36;5.80;62.00
48551;DHT22;34397;51.176;6.738;2022-11-20T14:19:20;5.80;62.00
48551;DHT22;34397;51.176;6.738;2022-11-20T14:25:00;5.80;62.10
48551;DHT22;34397;51.176;6.738;2022-11-20T14:27:35;5.80;62.10
48551;DHT22;34397;51.176;6.738;2022-11-20T14:30:11;5.80;62.10
48551;DHT22;34397;51.176;6.738;2022-11-20T14:32:46;5.80;62.10
48551;DHT22;34397;51.176;6.738;2022-11-20T14:35:20;5.80;62.30
48551;DHT22;34397;51.176;6.738;2022-11-20T14:37:53;5.80;62.40
48551;DHT22;34397;51.176;6.738;2022-11-20T14:40:27;5.80;62.40
48551;DHT22;34397;51.176;6.738;2022-11-20T14:43:00;5.80;62.40
48551;DHT22;34397;51.176;6.738;2022-11-20T14:45:32;5.80;62.40
48551;DHT22;34397;51.176;6.738;2022-11-20T14:48:04;5.80;62.60
48551;DHT22;34397;51.176;6.738;2022-11-20T14:50:37;5.80;62.60
48551;DHT22;34397;51.176;6.738;2022-11-20T14:53:09;5.80;62.70
48551;DHT22;34397;51.176;6.738;2022-11-20T14:55:41;5.80;62.80
48551;DHT22;34397;51.176;6.738;2022-11-20T14:58:20;5.80;62.80
48551;DHT22;34397;51.176;6.738;2022-11-20T15:00:53;5.80;63.00
48551;DHT22;34397;51.176;6.738;2022-11-20T15:03:31;5.70;63.00
48551;DHT22;34397;51.176;6.738;2022-11-20T15:06:05;5.70;63.20
48551;DHT22;34397;51.176;6.738;2022-11-20T15:08:38;5.70;63.20
48551;DHT22;34397;51.176;6.738;2022-11-20T15:11:16;5.70;63.20
48551;DHT22;34397;51.176;6.738;2022-11-20T15:13:48;5.70;63.20
48551;DHT22;34397;51.176;6.738;2022-11-20T15:16:21;5.70;63.40
48551;DHT22;34397;51.176;6.738;2022-11-20T15:18:53;5.70;63.50
48551;DHT22;34397;51.176;6.738;2022-11-20T15:21:27;5.70;63.70
48551;DHT22;34397;51.176;6.738;2022-11-20T15:23:59;5.70;63.50
48551;DHT22;34397;51.176;6.738;2022-11-20T15:26:31;5.70;63.50
48551;DHT22;34397;51.176;6.738;2022-11-20T15:29:04;5.70;63.70
48551;DHT22;34397;51.176;6.738;2022-11-20T15:31:35;5.70;63.50
48551;DHT22;34397;51.176;6.738;2022-11-20T15:34:08;5.70;63.60
48551;DHT22;34397;51.176;6.738;2022-11-20T15:36:42;5.70;63.50
48551;DHT22;34397;51.176;6.738;2022-11-20T15:39:14;5.60;63.50
48551;DHT22;34397;51.176;6.738;2022-11-20T15:41:46;5.60;63.70
48551;DHT22;34397;51.176;6.738;2022-11-20T15:44:18;5.60;63.90
48551;DHT22;34397;51.176;6.738;2022-11-20T15:46:50;5.60;64.30
48551;DHT22;34397;51.176;6.738;2022-11-20T15:49:22;5.60;64.40
48551;DHT22;34397;51.176;6.738;2022-11-20T15:51:55;5.50;64.10
48551;DHT22;34397;51.176;6.738;2022-11-20T15:54:27;5.50;64.40
48551;DHT22;34397;51.176;6.738;2022-11-20T15:56:58;5.50;64.40
48551;DHT22;34397;51.176;6.738;2022-11-20T15:59:31;5.50;65.00
48551;DHT22;34397;51.176;6.738;2022-11-20T16:02:02;5.40;64.90
48551;DHT22;34397;51.176;6.738;2022-11-20T16:04:39;5.40;65.30
48551;DHT22;34397;51.176;6.738;2022-11-20T16:07:12;5.40;65.70
48551;DHT22;34397;51.176;6.738;2022-11-20T16:09:43;5.40;65.70
48551;DHT22;34397;51.176;6.738;2022-11-20T16:12:15;5.40;66.00
48551;DHT22;34397;51.176;6.738;2022-11-20T16:15:08;5.40;66.20
48551;DHT22;34397;51.176;6.738;2022-11-20T16:17:58;5.40;66.30
48551;DHT22;34397;51.176;6.738;2022-11-20T16:20:29;5.40;66.30
48551;DHT22;34397;51.176;6.738;2022-11-20T16:23:02;5.40;66.30
48551;DHT22;34397;51.176;6.738;2022-11-20T16:25:34;5.40;66.50
48551;DHT22;34397;51.176;6.738;2022-11-20T16:28:06;5.40;66.70
48551;DHT22;34397;51.176;6.738;2022-11-20T16:30:38;5.40;66.70
48551;DHT22;34397;51.176;6.738;2022-11-20T16:33:10;5.40;66.80
48551;DHT22;34397;51.176;6.738;2022-11-20T16:35:42;5.40;66.80
48551;DHT22;34397;51.176;6.738;2022-11-20T16:38:16;5.40;66.80
48551;DHT22;34397;51.176;6.738;2022-11-20T16:40:47;5.40;66.90